Terminal Aerodrome Forecast
Issued by NWS Grand Forks, ND

Home | Current Version | Previous Version | Graphics & Text | Print | Product List | Glossary On
Versions: 1 2 3 4 5 6 7 8 9 10 11 12 13 14 15 16 17 18 19 20
000
FTUS43 KFGF 251700
TAFFAR
TAF
KFAR 251725Z 2518/2618 29014G23KT P6SM BKN035
     FM252000 29017G27KT P6SM BKN035
     FM260100 29013KT P6SM BKN040
     FM260500 VRB06KT P6SM SCT040=

USA.gov is the U.S. government's official web portal to all federal, state and local government web resources and services.